Time;durP1;ratioP1;P1;durP2;ratioP2;P2;SDS_P1;SDS_P2;PMS_P1;PMS_P2;Temp;Humidity;BMP_temperature;BMP_pressure;BME280_temperature;BME280_humidity;BME280_pressure;Samples;Min_cycle;Max_cycle;Signal;HPM_P1;HPM_P2
2021/06/25 00:01:43;;;;;;;3.70;3.00;;;15.60;99.90;;;;;;5007151;28;20245;-64
2021/06/25 00:04:11;;;;;;;4.87;3.73;;;15.60;99.90;;;;;;5007832;28;20699;-64
2021/06/25 00:06:40;;;;;;;5.83;3.63;;;15.60;99.90;;;;;;5046641;28;20592;-63
2021/06/25 00:09:09;;;;;;;5.10;3.83;;;15.60;99.90;;;;;;5046601;28;20319;-64
2021/06/25 00:11:39;;;;;;;6.30;3.90;;;15.50;99.90;;;;;;5026262;28;20257;-63
2021/06/25 00:14:08;;;;;;;4.40;3.87;;;15.50;99.90;;;;;;5027119;28;20584;-63
2021/06/25 00:16:38;;;;;;;4.43;3.47;;;15.40;99.90;;;;;;5026513;28;20244;-62
2021/06/25 00:19:11;;;;;;;5.80;3.70;;;15.40;99.90;;;;;;5028460;28;20242;-65
2021/06/25 00:21:40;;;;;;;4.13;3.70;;;15.40;99.90;;;;;;5026403;28;20390;-64
2021/06/25 00:24:10;;;;;;;5.63;3.70;;;15.40;99.90;;;;;;5027136;28;20267;-64
2021/06/25 00:26:39;;;;;;;5.00;3.40;;;15.40;99.90;;;;;;5031845;28;20240;-65
2021/06/25 00:29:09;;;;;;;4.83;3.53;;;15.30;99.90;;;;;;5026684;28;20240;-64
2021/06/25 00:31:38;;;;;;;4.70;3.37;;;15.30;99.90;;;;;;5026436;28;20240;-64
2021/06/25 00:34:09;;;;;;;5.30;3.70;;;15.30;99.90;;;;;;5027400;28;20696;-64
2021/06/25 00:36:39;;;;;;;4.30;3.90;;;15.20;99.90;;;;;;5025919;28;20271;-62
2021/06/25 00:39:09;;;;;;;4.07;3.73;;;15.20;99.90;;;;;;5026514;28;20705;-63
2021/06/25 00:41:38;;;;;;;6.17;4.00;;;15.20;99.90;;;;;;5026554;28;20234;-64
2021/06/25 00:44:16;;;;;;;5.47;4.23;;;15.20;99.90;;;;;;5027113;28;20236;-64
2021/06/25 00:46:46;;;;;;;6.77;4.37;;;15.20;99.90;;;;;;5009832;28;20252;-63
2021/06/25 00:49:18;;;;;;;7.13;4.10;;;15.20;99.90;;;;;;5029353;28;20255;-63
2021/06/25 00:51:47;;;;;;;5.47;4.20;;;15.20;99.90;;;;;;5030337;28;20316;-64
2021/06/25 00:54:17;;;;;;;4.40;3.80;;;15.10;99.90;;;;;;5030803;28;20596;-64
2021/06/25 00:56:46;;;;;;;3.70;3.40;;;15.10;99.90;;;;;;5030210;28;20735;-64
2021/06/25 00:59:16;;;;;;;5.47;4.10;;;15.10;99.90;;;;;;5029856;28;20766;-63
2021/06/25 01:01:45;;;;;;;5.07;3.70;;;15.10;99.90;;;;;;5049321;28;20243;-63
2021/06/25 01:04:16;;;;;;;4.27;3.87;;;15.10;99.90;;;;;;5050704;28;20640;-64
2021/06/25 01:06:46;;;;;;;4.00;3.50;;;15.10;99.90;;;;;;5050117;28;20342;-63
2021/06/25 01:09:17;;;;;;;4.87;3.50;;;15.10;99.90;;;;;;5049574;28;20646;-63
2021/06/25 01:11:47;;;;;;;5.77;4.00;;;15.10;99.90;;;;;;5015645;28;20391;-64
2021/06/25 01:14:19;;;;;;;4.30;3.77;;;15.00;99.90;;;;;;5010088;28;20248;-64
2021/06/25 01:16:49;;;;;;;4.07;3.67;;;15.00;99.90;;;;;;5012599;28;20233;-64
2021/06/25 01:19:20;;;;;;;4.17;3.77;;;15.00;99.90;;;;;;5032837;28;20328;-63
2021/06/25 01:21:52;;;;;;;5.90;4.13;;;14.90;99.90;;;;;;5030128;28;20236;-63
2021/06/25 01:24:22;;;;;;;4.50;4.17;;;15.00;99.90;;;;;;5030502;28;20708;-63
2021/06/25 01:26:51;;;;;;;6.20;4.30;;;15.00;99.90;;;;;;5049103;28;20240;-64
2021/06/25 01:29:22;;;;;;;4.70;4.10;;;14.90;99.90;;;;;;5048949;28;20252;-62
2021/06/25 01:31:52;;;;;;;5.20;4.30;;;14.90;99.90;;;;;;5035491;28;20283;-64
2021/06/25 01:34:22;;;;;;;4.93;4.53;;;14.80;99.90;;;;;;5029652;28;20252;-63
2021/06/25 01:36:53;;;;;;;5.30;4.80;;;14.90;99.90;;;;;;5029378;28;20270;-64
2021/06/25 01:39:23;;;;;;;5.27;4.77;;;14.90;99.90;;;;;;5029539;28;20243;-63
2021/06/25 01:41:52;;;;;;;4.73;4.33;;;14.90;99.90;;;;;;5048821;28;20268;-63
2021/06/25 01:44:22;;;;;;;5.27;4.50;;;14.90;99.90;;;;;;5048945;28;20238;-63
2021/06/25 01:46:51;;;;;;;4.90;4.50;;;14.80;99.90;;;;;;5029182;28;20237;-63
2021/06/25 01:49:21;;;;;;;7.30;4.60;;;14.90;99.90;;;;;;5028882;28;20247;-63
2021/06/25 01:51:52;;;;;;;5.50;4.87;;;14.90;99.90;;;;;;5028896;28;20291;-63
2021/06/25 01:54:21;;;;;;;5.50;5.00;;;14.90;99.90;;;;;;5029127;28;20239;-64
2021/06/25 01:56:51;;;;;;;5.77;4.97;;;14.90;99.90;;;;;;5044473;28;20237;-63
2021/06/25 01:59:21;;;;;;;5.87;4.80;;;14.90;99.90;;;;;;5028658;28;20236;-63
2021/06/25 02:01:50;;;;;;;6.23;4.73;;;14.80;99.90;;;;;;5028774;28;20251;-64
2021/06/25 02:04:18;;;;;;;6.53;5.47;;;14.80;99.90;;;;;;5029078;28;20236;-63
2021/06/25 02:06:46;;;;;;;5.77;4.93;;;14.80;99.90;;;;;;5029903;28;20331;-63
2021/06/25 02:09:16;;;;;;;7.37;5.20;;;14.70;99.90;;;;;;5028629;28;20454;-64
2021/06/25 02:11:44;;;;;;;7.10;5.57;;;14.60;99.90;;;;;;5028570;28;20246;-64
2021/06/25 02:14:12;;;;;;;6.17;5.07;;;14.60;99.90;;;;;;5029082;28;20555;-61
2021/06/25 02:16:40;;;;;;;5.97;5.03;;;14.50;99.90;;;;;;5048457;28;20249;-63
2021/06/25 02:19:09;;;;;;;6.03;5.00;;;14.50;99.90;;;;;;5046056;28;20262;-63
2021/06/25 02:21:37;;;;;;;7.40;5.13;;;14.50;99.90;;;;;;5047714;28;20264;-63
2021/06/25 02:24:06;;;;;;;5.50;5.00;;;14.50;99.90;;;;;;5048976;28;20231;-64
2021/06/25 02:26:36;;;;;;;6.53;5.33;;;14.50;99.90;;;;;;5029204;28;20247;-64
2021/06/25 02:29:04;;;;;;;5.93;5.33;;;14.50;99.90;;;;;;5028432;28;20236;-63
2021/06/25 02:31:32;;;;;;;6.27;5.43;;;14.40;99.90;;;;;;5046608;28;20726;-64
2021/06/25 02:34:00;;;;;;;6.37;5.63;;;14.40;99.90;;;;;;5048788;28;20566;-64
2021/06/25 02:36:29;;;;;;;6.53;5.93;;;14.50;99.90;;;;;;5029539;28;20254;-64
2021/06/25 02:38:57;;;;;;;6.73;5.50;;;14.40;99.90;;;;;;5028402;28;20704;-62
2021/06/25 02:41:25;;;;;;;6.10;5.50;;;14.40;99.90;;;;;;5045369;28;20331;-63
2021/06/25 02:43:54;;;;;;;5.97;5.47;;;14.40;99.90;;;;;;5048157;28;20633;-64
2021/06/25 02:46:23;;;;;;;6.63;5.90;;;14.40;99.90;;;;;;5063190;28;20235;-65
2021/06/25 02:48:51;;;;;;;6.33;5.73;;;14.30;99.90;;;;;;5047937;28;20240;-64
2021/06/25 02:51:19;;;;;;;6.67;5.87;;;14.40;99.90;;;;;;5045706;28;20327;-64
2021/06/25 02:53:47;;;;;;;6.63;6.03;;;14.40;99.90;;;;;;5027912;28;20240;-63
2021/06/25 02:56:15;;;;;;;6.07;5.50;;;14.30;99.90;;;;;;5044009;28;20738;-61
2021/06/25 02:58:43;;;;;;;6.87;6.10;;;14.30;99.90;;;;;;5047620;28;20305;-63
2021/06/25 03:01:13;;;;;;;6.70;5.77;;;14.30;99.90;;;;;;5031341;28;20236;-62
2021/06/25 03:03:41;;;;;;;6.63;5.90;;;14.30;99.90;;;;;;5028148;28;20244;-64
2021/06/25 03:06:10;;;;;;;6.90;6.10;;;14.30;99.90;;;;;;5034909;28;20308;-63
2021/06/25 03:08:38;;;;;;;7.70;6.10;;;14.30;99.90;;;;;;5027887;28;20244;-64
2021/06/25 03:11:06;;;;;;;6.10;5.50;;;14.30;99.90;;;;;;5026313;28;20233;-64
2021/06/25 03:13:34;;;;;;;7.43;5.87;;;14.20;99.90;;;;;;5027906;28;20244;-64
2021/06/25 03:16:02;;;;;;;9.03;5.83;;;14.20;99.90;;;;;;5042152;28;20547;-64
2021/06/25 03:18:32;;;;;;;7.23;6.53;;;14.20;99.90;;;;;;5047097;28;20244;-64
2021/06/25 03:21:00;;;;;;;6.60;6.00;;;14.20;99.90;;;;;;5043025;28;20246;-63
2021/06/25 03:23:28;;;;;;;6.93;6.23;;;14.20;99.90;;;;;;5047071;28;21237;-64
2021/06/25 03:25:57;;;;;;;7.03;6.33;;;14.20;99.90;;;;;;5028065;28;20240;-65
2021/06/25 03:28:25;;;;;;;7.50;6.17;;;14.20;99.90;;;;;;5027368;28;20643;-64
2021/06/25 03:30:53;;;;;;;7.37;6.40;;;14.30;99.90;;;;;;5039820;28;20243;-63
2021/06/25 03:33:21;;;;;;;7.60;6.73;;;14.30;99.90;;;;;;5047645;28;20305;-64
2021/06/25 03:35:51;;;;;;;7.10;6.50;;;14.30;99.90;;;;;;5061982;28;20698;-64
2021/06/25 03:38:20;;;;;;;7.83;6.63;;;14.40;99.90;;;;;;5046767;28;20290;-64
2021/06/25 03:40:48;;;;;;;7.03;6.33;;;14.40;99.90;;;;;;5033376;28;20355;-64
2021/06/25 03:43:16;;;;;;;7.10;6.40;;;14.40;99.90;;;;;;5027446;28;20245;-64
2021/06/25 03:45:44;;;;;;;7.20;6.50;;;14.40;99.90;;;;;;5026991;28;20439;-64
2021/06/25 03:48:13;;;;;;;6.30;5.70;;;14.40;99.90;;;;;;5026941;28;20681;-63
2021/06/25 03:50:41;;;;;;;6.23;5.63;;;14.50;99.90;;;;;;5037658;28;20328;-63
2021/06/25 03:53:10;;;;;;;7.17;6.47;;;14.50;99.90;;;;;;5047329;28;20645;-64
2021/06/25 03:56:09;;;;;;;7.63;6.37;;;14.60;99.90;;;;;;5036711;28;20236;-62
2021/06/25 03:58:29;;;;;;;6.90;6.20;;;14.70;99.90;;;;;;5025046;28;20240;-64
2021/06/25 04:00:57;;;;;;;7.27;6.20;;;14.70;99.90;;;;;;5039519;28;20243;-64
2021/06/25 04:03:25;;;;;;;8.73;6.57;;;14.80;99.90;;;;;;5046831;28;20232;-63
2021/06/25 04:05:53;;;;;;;6.97;6.30;;;14.90;99.90;;;;;;5033356;28;20244;-63
2021/06/25 04:08:25;;;;;;;7.20;6.27;;;14.90;99.90;;;;;;5026713;28;20727;-64
2021/06/25 04:10:54;;;;;;;7.07;6.37;;;14.90;99.90;;;;;;5026092;28;20240;-63
2021/06/25 04:13:22;;;;;;;8.53;6.60;;;14.90;99.90;;;;;;5026892;28;20315;-64
2021/06/25 04:15:50;;;;;;;7.87;6.93;;;14.90;99.90;;;;;;5026734;28;20233;-64
2021/06/25 04:18:19;;;;;;;7.73;7.03;;;14.90;99.90;;;;;;5026764;28;20254;-64
2021/06/25 04:20:48;;;;;;;8.63;7.43;;;14.90;99.90;;;;;;5038373;28;20245;-62
2021/06/25 04:23:16;;;;;;;9.73;7.63;;;14.90;99.90;;;;;;5050506;28;20754;-64
2021/06/25 04:25:46;;;;;;;7.83;7.10;;;15.00;99.90;;;;;;5030816;28;20241;-63
2021/06/25 04:28:15;;;;;;;7.63;6.83;;;15.10;99.90;;;;;;5030415;28;20258;-64
2021/06/25 04:30:43;;;;;;;8.00;6.90;;;15.10;99.90;;;;;;5029498;28;20239;-62
2021/06/25 04:33:13;;;;;;;8.93;8.03;;;15.20;99.90;;;;;;5031089;28;20264;-64
2021/06/25 04:35:45;;;;;;;8.27;7.33;;;15.30;99.90;;;;;;5030119;28;20236;-64
2021/06/25 04:38:13;;;;;;;9.40;7.80;;;15.30;99.90;;;;;;5030028;28;20260;-64
2021/06/25 04:40:43;;;;;;;10.47;8.53;;;15.40;99.90;;;;;;5029229;28;20241;-63
2021/06/25 04:43:16;;;;;;;9.43;8.37;;;15.40;99.90;;;;;;5030823;28;20236;-64
2021/06/25 04:45:45;;;;;;;9.60;8.70;;;15.40;99.90;;;;;;5041945;28;20236;-64
2021/06/25 04:48:15;;;;;;;9.30;8.43;;;15.40;99.90;;;;;;5036006;28;20240;-65
2021/06/25 04:50:45;;;;;;;8.20;7.40;;;15.40;99.90;;;;;;5040677;28;20247;-64
2021/06/25 04:53:13;;;;;;;9.57;8.40;;;15.50;99.90;;;;;;5042220;28;20323;-63
2021/06/25 04:55:42;;;;;;;9.60;8.00;;;15.50;99.90;;;;;;5029990;28;20236;-64
2021/06/25 04:58:13;;;;;;;10.93;9.73;;;15.60;99.90;;;;;;5029963;28;20315;-63
2021/06/25 05:00:42;;;;;;;11.10;9.53;;;15.80;99.90;;;;;;5029223;28;20260;-64
2021/06/25 05:03:10;;;;;;;11.97;8.67;;;15.80;99.90;;;;;;5045492;28;20300;-64
2021/06/25 05:05:40;;;;;;;8.23;7.43;;;15.90;99.90;;;;;;5040269;28;20247;-63
2021/06/25 05:08:09;;;;;;;11.20;8.47;;;16.00;99.90;;;;;;5036458;28;20315;-65
2021/06/25 05:10:37;;;;;;;8.80;7.93;;;16.20;99.90;;;;;;5028839;28;20244;-64
2021/06/25 05:13:07;;;;;;;8.83;8.03;;;16.20;99.90;;;;;;5029018;28;20638;-64
2021/06/25 05:15:36;;;;;;;10.90;9.80;;;16.30;99.90;;;;;;5028516;28;20706;-64
2021/06/25 05:18:12;;;;;;;12.70;8.97;;;16.40;99.90;;;;;;5043104;28;20286;-64
2021/06/25 05:21:00;;;;;;;9.77;8.73;;;16.40;99.90;;;;;;5042102;28;20264;-64
2021/06/25 05:23:30;;;;;;;9.77;8.77;;;16.50;99.90;;;;;;5040858;28;20236;-65
2021/06/25 05:25:58;;;;;;;9.20;8.33;;;16.70;99.90;;;;;;5024017;28;20224;-63
2021/06/25 05:28:26;;;;;;;9.73;8.83;;;16.90;99.90;;;;;;5019911;28;20234;-63
2021/06/25 05:30:55;;;;;;;10.00;9.00;;;17.00;99.90;;;;;;5018841;28;20240;-64
2021/06/25 05:33:24;;;;;;;8.87;7.97;;;17.20;99.90;;;;;;5017181;28;21107;-63
2021/06/25 05:35:52;;;;;;;10.60;8.03;;;17.40;99.90;;;;;;5030458;28;20251;-64
2021/06/25 05:38:20;;;;;;;9.23;8.33;;;17.60;99.90;;;;;;5034103;28;20385;-63
2021/06/25 05:40:49;;;;;;;8.73;7.90;;;18.00;99.90;;;;;;5022709;28;20634;-64
2021/06/25 05:43:17;;;;;;;10.10;8.20;;;18.20;99.90;;;;;;5014805;28;20248;-64
2021/06/25 05:45:46;;;;;;;8.87;7.17;;;18.30;99.90;;;;;;5015738;28;20464;-63
2021/06/25 05:48:15;;;;;;;11.47;9.00;;;18.30;99.90;;;;;;5014653;28;20241;-64
2021/06/25 05:50:44;;;;;;;9.20;8.30;;;18.30;99.90;;;;;;5019996;28;20268;-62
2021/06/25 05:53:12;;;;;;;10.03;9.07;;;18.30;99.90;;;;;;5015010;28;20594;-65
2021/06/25 05:55:42;;;;;;;8.93;8.07;;;18.30;99.90;;;;;;5013014;28;20412;-63
2021/06/25 05:58:11;;;;;;;8.77;7.97;;;18.40;99.90;;;;;;5012957;28;20307;-64
2021/06/25 06:00:39;;;;;;;12.73;8.90;;;18.40;99.90;;;;;;5017278;28;20329;-63
2021/06/25 06:03:07;;;;;;;9.87;8.80;;;18.40;99.90;;;;;;5015474;28;20287;-65
2021/06/25 06:05:37;;;;;;;10.33;8.63;;;18.20;99.90;;;;;;5011618;28;20248;-63
2021/06/25 06:08:06;;;;;;;9.33;8.43;;;18.10;99.90;;;;;;5011850;28;20233;-64
2021/06/25 06:10:36;;;;;;;8.93;8.13;;;18.10;99.90;;;;;;5012751;28;20905;-63
2021/06/25 06:13:08;;;;;;;9.90;9.00;;;18.20;99.90;;;;;;5013785;28;20241;-64
2021/06/25 06:15:37;;;;;;;9.63;8.60;;;18.30;99.90;;;;;;5013865;28;20586;-63
2021/06/25 06:18:06;;;;;;;9.73;8.07;;;18.30;99.90;;;;;;5012580;28;20241;-64
2021/06/25 06:20:34;;;;;;;9.87;8.87;;;18.30;99.90;;;;;;5015058;28;20648;-59
2021/06/25 06:31:22;;;;;;;9.33;8.33;;;18.60;99.90;;;;;;5024371;28;20253;-59
2021/06/25 06:33:54;;;;;;;9.53;8.47;;;18.80;99.90;;;;;;5027289;28;20599;-58
2021/06/25 06:36:26;;;;;;;9.77;8.77;;;19.10;99.90;;;;;;5045167;28;20241;-59
2021/06/25 06:38:59;;;;;;;9.77;8.80;;;19.40;99.90;;;;;;5047887;28;20257;-60
2021/06/25 06:41:28;;;;;;;9.20;8.40;;;19.60;99.90;;;;;;5034434;28;20600;-60
2021/06/25 06:43:57;;;;;;;9.57;8.20;;;19.80;99.90;;;;;;5027334;28;20644;-59
2021/06/25 06:46:30;;;;;;;9.43;8.47;;;20.00;99.90;;;;;;5027096;28;20612;-60
2021/06/25 06:48:59;;;;;;;9.63;8.67;;;20.10;99.90;;;;;;5027464;28;20711;-60
2021/06/25 06:51:28;;;;;;;8.47;7.67;;;20.20;99.90;;;;;;5026240;28;20268;-60
2021/06/25 06:54:00;;;;;;;9.17;8.27;;;20.40;99.90;;;;;;5007780;28;20235;-60
2021/06/25 06:56:29;;;;;;;10.57;8.87;;;20.40;99.90;;;;;;5019887;28;20255;-60
2021/06/25 06:59:00;;;;;;;9.37;8.17;;;20.50;99.90;;;;;;5023904;28;20228;-60
2021/06/25 07:01:30;;;;;;;8.23;7.43;;;20.80;99.90;;;;;;5042188;28;20238;-60
2021/06/25 07:04:18;;;;;;;9.13;8.20;;;20.80;99.90;;;;;;5044292;28;20325;-60
2021/06/25 07:06:46;;;;;;;8.07;7.30;;;20.90;99.90;;;;;;5023948;28;20234;-60
2021/06/25 07:09:16;;;;;;;7.50;6.90;;;21.30;99.90;;;;;;5025626;28;20297;-60
2021/06/25 07:11:44;;;;;;;8.93;8.13;;;21.60;99.90;;;;;;5006311;28;20245;-60
2021/06/25 07:14:12;;;;;;;8.70;7.80;;;21.80;99.90;;;;;;5041604;28;20282;-60
2021/06/25 07:16:40;;;;;;;8.87;7.57;;;21.90;99.90;;;;;;5046894;28;20231;-61
2021/06/25 07:19:08;;;;;;;7.67;6.90;;;22.00;99.90;;;;;;5044894;28;20234;-60
2021/06/25 07:21:36;;;;;;;8.07;7.37;;;22.20;99.90;;;;;;5024959;28;20315;-60
2021/06/25 07:24:05;;;;;;;8.47;7.67;;;22.40;99.90;;;;;;5026785;28;20293;-59
2021/06/25 07:26:35;;;;;;;8.77;7.57;;;22.50;99.90;;;;;;5026793;28;20239;-60
2021/06/25 07:29:03;;;;;;;9.33;7.97;;;22.50;99.90;;;;;;5027541;28;20239;-59
2021/06/25 07:31:31;;;;;;;8.60;7.80;;;22.50;99.90;;;;;;5031676;28;20248;-59
2021/06/25 07:33:59;;;;;;;7.53;6.73;;;22.90;99.90;;;;;;5027174;28;20305;-59
2021/06/25 07:36:27;;;;;;;7.93;7.13;;;22.90;99.90;;;;;;5036415;28;20260;-60
2021/06/25 07:38:56;;;;;;;8.50;7.70;;;22.70;99.90;;;;;;5027104;28;20225;-59
2021/06/25 07:41:24;;;;;;;9.80;8.80;;;22.60;99.90;;;;;;5025803;28;20239;-59
2021/06/25 07:43:53;;;;;;;7.80;7.00;;;22.80;99.90;;;;;;5025978;28;20774;-59
2021/06/25 07:46:22;;;;;;;8.10;7.17;;;23.20;99.90;;;;;;5026804;28;20722;-59
2021/06/25 07:48:50;;;;;;;8.03;6.93;;;23.50;99.90;;;;;;5026978;28;20282;-59
2021/06/25 07:51:18;;;;;;;8.27;7.47;;;24.10;99.90;;;;;;5026229;28;20236;-60
2021/06/25 07:53:46;;;;;;;8.50;7.77;;;24.30;99.90;;;;;;5026505;28;20247;-60
2021/06/25 07:56:15;;;;;;;8.63;7.83;;;24.40;99.90;;;;;;5026195;28;20896;-59
2021/06/25 07:58:43;;;;;;;7.27;6.60;;;24.50;99.90;;;;;;5026797;28;20236;-59
2021/06/25 08:01:12;;;;;;;8.13;7.10;;;24.70;99.90;;;;;;5024588;28;20234;-60
2021/06/25 08:03:41;;;;;;;8.73;6.90;;;24.80;99.90;;;;;;5027328;28;20236;-59
2021/06/25 08:06:11;;;;;;;6.67;5.97;;;24.80;99.90;;;;;;5033228;28;20252;-60
2021/06/25 08:08:39;;;;;;;8.40;7.53;;;24.80;99.90;;;;;;5026757;28;20759;-59
2021/06/25 08:11:08;;;;;;;7.00;6.40;;;24.60;99.90;;;;;;5026100;28;20323;-60
2021/06/25 08:13:36;;;;;;;6.63;6.00;;;24.60;99.90;;;;;;5027534;28;20290;-59
2021/06/25 08:16:04;;;;;;;8.40;7.70;;;24.60;99.90;;;;;;5032676;28;20271;-59
2021/06/25 08:18:34;;;;;;;7.57;6.93;;;24.60;99.90;;;;;;5026762;28;20238;-59
2021/06/25 08:21:02;;;;;;;6.93;6.23;;;24.50;99.90;;;;;;5029276;28;20263;-60
2021/06/25 08:23:34;;;;;;;7.20;6.60;;;24.20;99.90;;;;;;5026726;28;20690;-60
2021/06/25 08:26:02;;;;;;;7.30;6.63;;;24.00;99.90;;;;;;5026611;28;20242;-59
2021/06/25 08:28:30;;;;;;;8.27;7.47;;;24.10;99.90;;;;;;5026586;28;20245;-60
2021/06/25 08:30:58;;;;;;;8.43;7.73;;;24.00;99.90;;;;;;5026703;28;20286;-60
2021/06/25 08:33:27;;;;;;;7.50;6.80;;;23.60;99.90;;;;;;5023691;28;20236;-59
2021/06/25 08:35:56;;;;;;;6.47;5.73;;;23.40;99.90;;;;;;5036094;28;20238;-58
2021/06/25 08:38:24;;;;;;;7.03;6.43;;;23.40;99.90;;;;;;5026601;28;20637;-60
2021/06/25 08:40:52;;;;;;;6.30;5.70;;;23.30;99.90;;;;;;5026045;28;20319;-60
2021/06/25 08:43:21;;;;;;;7.53;6.63;;;23.20;99.90;;;;;;5026659;28;20237;-60
2021/06/25 08:45:50;;;;;;;6.33;5.73;;;23.60;99.90;;;;;;5026498;28;20229;-60
2021/06/25 08:48:18;;;;;;;5.77;5.27;;;23.80;99.90;;;;;;5026255;28;20233;-58
2021/06/25 08:50:51;;;;;;;6.40;5.80;;;24.20;99.90;;;;;;5031459;28;20291;-60
2021/06/25 08:53:21;;;;;;;6.23;5.67;;;24.70;99.90;;;;;;5026578;28;20598;-59
2021/06/25 08:55:49;;;;;;;5.73;5.17;;;24.90;99.90;;;;;;5032108;28;20316;-61
2021/06/25 08:58:19;;;;;;;5.00;4.50;;;25.10;99.90;;;;;;5026438;28;20234;-59
2021/06/25 09:00:49;;;;;;;6.60;5.90;;;25.60;99.90;;;;;;5025113;28;20241;-60
2021/06/25 09:03:21;;;;;;;5.80;4.73;;;25.60;99.90;;;;;;5027091;28;20243;-60
2021/06/25 09:05:50;;;;;;;5.63;5.07;;;26.10;99.90;;;;;;5026309;28;20239;-60
2021/06/25 09:08:27;;;;;;;4.87;4.47;;;26.50;99.90;;;;;;5026510;28;20576;-60
2021/06/25 09:10:58;;;;;;;5.57;4.13;;;27.00;99.90;;;;;;5029628;28;20235;-60
2021/06/25 09:13:35;;;;;;;4.30;3.60;;;27.40;99.90;;;;;;5029859;28;20294;-59
2021/06/25 09:16:19;;;;;;;5.60;5.00;;;27.50;99.90;;;;;;5050650;28;20247;-59
2021/06/25 09:18:59;;;;;;;4.17;3.77;;;26.90;99.90;;;;;;5029667;28;20236;-60
2021/06/25 09:21:28;;;;;;;4.10;3.80;;;26.90;99.90;;;;;;5046427;28;20288;-60
2021/06/25 09:24:14;;;;;;;4.20;3.80;;;26.40;99.90;;;;;;5029451;28;20613;-59
2021/06/25 09:26:42;;;;;;;4.27;3.77;;;25.90;99.90;;;;;;5022656;28;20303;-60
2021/06/25 09:29:14;;;;;;;4.53;3.53;;;25.50;99.90;;;;;;5029836;28;20249;-60
2021/06/25 09:31:43;;;;;;;3.90;3.60;;;25.70;99.90;;;;;;5028480;28;20289;-60
2021/06/25 09:34:12;;;;;;;4.50;4.10;;;25.80;99.90;;;;;;5028750;28;20241;-60
2021/06/25 09:36:40;;;;;;;4.90;3.67;;;25.00;99.90;;;;;;5039348;28;20241;-60
2021/06/25 09:39:12;;;;;;;3.97;3.17;;;24.50;99.90;;;;;;5029156;28;20313;-59
2021/06/25 09:41:43;;;;;;;3.87;3.10;;;25.20;99.90;;;;;;5034353;28;20297;-59
2021/06/25 09:44:15;;;;;;;4.50;2.93;;;25.90;99.90;;;;;;5029067;28;20292;-60
2021/06/25 09:46:45;;;;;;;5.47;3.20;;;26.40;99.90;;;;;;5043962;28;21383;-60
2021/06/25 09:49:14;;;;;;;2.90;2.67;;;27.50;99.90;;;;;;5029051;28;20326;-59
2021/06/25 09:51:54;;;;;;;3.37;2.90;;;27.80;99.90;;;;;;5029032;28;20591;-60
2021/06/25 09:54:24;;;;;;;4.30;3.90;;;28.00;99.90;;;;;;5028794;28;20285;-60
2021/06/25 09:57:06;;;;;;;3.10;2.90;;;27.10;99.90;;;;;;5029069;28;20240;-60
2021/06/25 09:59:52;;;;;;;3.90;3.37;;;26.30;99.90;;;;;;5028632;28;20259;-61
2021/06/25 10:02:28;;;;;;;3.97;3.30;;;26.70;99.90;;;;;;5028498;28;20297;-60
2021/06/25 10:04:58;;;;;;;3.70;3.40;;;27.50;99.90;;;;;;5034294;28;20317;-60
2021/06/25 10:07:28;;;;;;;3.83;3.33;;;27.00;99.90;;;;;;5048794;28;20226;-60
2021/06/25 10:10:01;;;;;;;3.20;2.90;;;26.10;99.90;;;;;;5048131;28;20588;-60
2021/06/25 10:12:30;;;;;;;4.40;2.77;;;26.10;99.90;;;;;;5008823;28;20268;-59
2021/06/25 10:14:58;;;;;;;3.73;2.80;;;27.00;99.90;;;;;;5017602;28;20321;-59
2021/06/25 10:17:28;;;;;;;3.50;2.60;;;27.60;99.90;;;;;;5027497;28;20322;-60
2021/06/25 10:20:04;;;;;;;4.70;3.37;;;28.30;99.90;;;;;;5031072;28;20243;-60
2021/06/25 10:22:34;;;;;;;3.27;2.70;;;28.50;98.40;;;;;;5028198;28;20242;-60
2021/06/25 10:25:05;;;;;;;3.70;2.60;;;28.20;97.90;;;;;;5034660;28;20239;-59
2021/06/25 10:27:34;;;;;;;5.27;2.80;;;28.00;97.30;;;;;;5031736;28;20665;-60
2021/06/25 10:30:04;;;;;;;4.80;4.30;;;27.30;99.50;;;;;;5027844;28;20245;-60
2021/06/25 10:32:33;;;;;;;4.23;3.20;;;26.90;99.00;;;;;;5027764;28;20339;-60
2021/06/25 10:35:02;;;;;;;4.33;3.00;;;26.50;99.80;;;;;;5028128;28;20239;-59
2021/06/25 10:37:30;;;;;;;3.67;3.37;;;26.30;99.90;;;;;;5027706;28;20243;-60
2021/06/25 10:39:58;;;;;;;4.07;3.50;;;26.20;99.90;;;;;;5033195;28;20263;-60
2021/06/25 10:42:41;;;;;;;4.83;3.90;;;26.10;99.90;;;;;;5027627;28;20616;-60
2021/06/25 10:45:10;;;;;;;3.00;2.57;;;26.70;99.90;;;;;;5027499;28;20301;-61
2021/06/25 10:47:52;;;;;;;4.23;3.83;;;26.90;99.90;;;;;;5028504;28;20276;-59
2021/06/25 10:50:25;;;;;;;4.80;4.40;;;27.20;99.00;;;;;;5036393;28;20375;-60
2021/06/25 10:53:17;;;;;;;3.60;3.30;;;26.80;97.00;;;;;;5037233;28;20564;-60
2021/06/25 10:56:08;;;;;;;3.13;2.50;;;27.00;99.30;;;;;;5027792;28;20326;-59
2021/06/25 10:58:38;;;;;;;3.23;2.83;;;27.90;99.20;;;;;;5027909;28;20244;-59
2021/06/25 11:01:09;;;;;;;2.37;2.17;;;28.70;97.90;;;;;;5042350;28;20603;-60
2021/06/25 11:03:48;;;;;;;3.90;3.57;;;29.40;97.60;;;;;;5027817;28;20282;-61
2021/06/25 11:06:53;;;;;;;4.00;3.60;;;29.20;94.90;;;;;;5022687;28;20703;-60
2021/06/25 11:09:21;;;;;;;3.73;3.43;;;29.10;94.50;;;;;;5027419;28;20290;-60
2021/06/25 11:12:06;;;;;;;5.10;4.60;;;28.90;94.00;;;;;;5027269;28;20324;-59
2021/06/25 11:14:35;;;;;;;5.93;5.10;;;28.60;94.90;;;;;;5029467;28;20765;-60
2021/06/25 11:17:03;;;;;;;5.70;4.57;;;28.70;95.50;;;;;;5023260;28;20233;-59
2021/06/25 11:19:37;;;;;;;3.93;3.20;;;29.20;95.40;;;;;;5014765;28;20251;-60
2021/06/25 11:22:20;;;;;;;4.23;3.83;;;28.60;95.80;;;;;;5029531;28;20326;-59
2021/06/25 11:24:50;;;;;;;5.60;3.90;;;27.90;96.00;;;;;;5031318;28;20517;-60
2021/06/25 11:27:18;;;;;;;3.57;3.27;;;27.00;97.10;;;;;;5019455;28;20315;-59
2021/06/25 11:29:49;;;;;;;3.53;3.30;;;27.40;98.20;;;;;;5026704;28;20321;-60
2021/06/25 11:32:28;;;;;;;5.90;4.77;;;28.20;97.60;;;;;;5041350;28;20305;-59
2021/06/25 11:34:57;;;;;;;5.00;4.60;;;28.00;95.90;;;;;;5026514;28;20236;-61
2021/06/25 11:37:58;;;;;;;4.47;3.93;;;27.00;97.40;;;;;;5026794;28;20239;-61
2021/06/25 11:40:48;;;;;;;6.40;3.70;;;27.30;98.40;;;;;;5015775;28;20639;-59
2021/06/25 11:43:20;;;;;;;4.07;3.67;;;27.90;97.70;;;;;;5026735;28;20248;-59
2021/06/25 11:45:51;;;;;;;4.43;4.03;;;27.70;97.90;;;;;;5026447;28;20803;-59
2021/06/25 11:48:21;;;;;;;4.30;3.90;;;28.00;97.40;;;;;;5027127;28;20236;-60
2021/06/25 11:50:57;;;;;;;4.60;4.30;;;28.50;97.50;;;;;;5038486;28;20246;-59
2021/06/25 11:53:26;;;;;;;4.90;4.50;;;28.90;97.10;;;;;;5034330;28;20227;-59
2021/06/25 11:55:54;;;;;;;5.43;4.07;;;29.10;96.30;;;;;;5026155;28;20722;-59
2021/06/25 11:58:22;;;;;;;4.10;3.70;;;28.70;96.90;;;;;;5026714;28;20708;-60
2021/06/25 12:01:03;;;;;;;5.17;4.67;;;28.90;97.40;;;;;;5031618;28;20236;-59
2021/06/25 12:03:43;;;;;;;5.97;5.47;;;29.20;95.90;;;;;;5026320;28;20755;-60
2021/06/25 12:06:12;;;;;;;6.47;5.80;;;28.60;95.40;;;;;;5042087;28;20321;-60
2021/06/25 12:08:59;;;;;;;5.53;4.63;;;28.10;96.20;;;;;;5028765;28;20262;-59
2021/06/25 12:11:29;;;;;;;5.73;5.23;;;28.00;96.90;;;;;;5024122;28;20286;-59
2021/06/25 12:14:03;;;;;;;6.93;6.43;;;28.00;96.80;;;;;;5027091;28;20259;-60
2021/06/25 12:16:39;;;;;;;7.70;7.00;;;27.80;96.00;;;;;;5024085;28;20773;-59
2021/06/25 12:19:10;;;;;;;5.30;4.83;;;27.40;95.50;;;;;;5026305;28;20250;-60
2021/06/25 12:21:41;;;;;;;5.73;5.23;;;27.30;97.90;;;;;;5026235;28;20599;-60
2021/06/25 12:24:11;;;;;;;6.20;5.70;;;27.40;94.60;;;;;;5027585;28;20679;-60
2021/06/25 12:26:39;;;;;;;5.57;4.83;;;27.10;95.90;;;;;;5032289;28;20243;-59
2021/06/25 12:29:11;;;;;;;5.73;5.33;;;27.30;96.40;;;;;;5026572;28;20251;-60
2021/06/25 12:31:40;;;;;;;7.77;7.00;;;27.30;95.90;;;;;;5041457;28;20252;-60
2021/06/25 12:34:11;;;;;;;5.27;4.87;;;26.70;96.00;;;;;;5026878;28;20228;-59
2021/06/25 12:36:40;;;;;;;6.13;4.67;;;26.60;97.60;;;;;;5029934;28;20327;-59
2021/06/25 12:39:11;;;;;;;4.87;4.47;;;26.70;98.10;;;;;;5026594;28;20306;-60
2021/06/25 12:41:43;;;;;;;5.87;5.37;;;26.60;96.80;;;;;;5031506;28;20314;-60
2021/06/25 12:44:12;;;;;;;6.17;5.57;;;26.70;96.50;;;;;;5030668;28;20240;-60
2021/06/25 12:46:43;;;;;;;6.43;5.87;;;26.90;96.20;;;;;;5030239;28;20247;-60
2021/06/25 12:49:11;;;;;;;6.20;5.70;;;26.80;96.10;;;;;;5045361;28;20678;-60
2021/06/25 12:51:40;;;;;;;5.50;5.00;;;26.70;96.40;;;;;;5033910;28;20323;-60
2021/06/25 12:54:08;;;;;;;6.03;5.17;;;26.70;97.20;;;;;;5030693;28;20246;-60
2021/06/25 12:56:38;;;;;;;6.43;5.50;;;26.80;97.70;;;;;;5022005;28;20596;-59
2021/06/25 12:59:10;;;;;;;6.70;6.10;;;26.90;96.70;;;;;;5030075;28;20248;-60
2021/06/25 13:01:39;;;;;;;6.53;5.93;;;26.80;96.90;;;;;;5029533;28;20298;-59
2021/06/25 13:04:21;;;;;;;7.40;6.40;;;26.60;96.60;;;;;;5030304;28;20237;-59
2021/06/25 13:06:51;;;;;;;7.27;6.67;;;26.50;96.50;;;;;;5029446;28;20311;-59
2021/06/25 13:09:21;;;;;;;7.10;6.60;;;26.50;95.60;;;;;;5030026;28;20805;-61
2021/06/25 13:11:50;;;;;;;5.40;5.00;;;26.40;95.40;;;;;;5044666;28;20235;-60